createdAt,value
2017-12-01T00:00:01.754Z,3.50
2017-12-01T00:02:30.820Z,3.60
2017-12-01T00:04:59.056Z,3.50
2017-12-01T00:07:27.296Z,3.50
2017-12-01T00:09:56.327Z,3.50
2017-12-01T00:12:24.602Z,3.50
2017-12-01T00:14:52.847Z,3.40
2017-12-01T00:17:21.862Z,3.40
2017-12-01T00:19:50.140Z,3.40
2017-12-01T00:22:18.412Z,3.40
2017-12-01T00:24:46.703Z,3.40
2017-12-01T00:27:14.983Z,3.40
2017-12-01T00:29:43.229Z,3.40
2017-12-01T00:32:12.261Z,3.50
2017-12-01T00:34:40.549Z,3.40
2017-12-01T00:37:08.773Z,3.50
2017-12-01T00:39:37.027Z,3.50
2017-12-01T00:42:06.024Z,3.50
2017-12-01T00:44:35.096Z,3.40
2017-12-01T00:47:03.369Z,3.40
2017-12-01T00:49:31.619Z,3.50
2017-12-01T00:51:59.881Z,3.50
2017-12-01T00:54:28.120Z,3.50
2017-12-01T00:56:56.402Z,3.50
2017-12-01T00:59:25.473Z,3.60
2017-12-01T01:01:53.744Z,3.60
2017-12-01T01:04:22.033Z,3.50
2017-12-01T01:06:50.267Z,3.50
2017-12-01T01:09:18.494Z,3.50
2017-12-01T01:11:47.598Z,3.50
2017-12-01T01:14:16.657Z,3.50
2017-12-01T01:16:44.896Z,3.40
2017-12-01T01:19:13.135Z,3.40
2017-12-01T01:21:41.386Z,3.40
2017-12-01T01:24:09.644Z,3.50
2017-12-01T01:26:38.433Z,3.40
2017-12-01T01:29:06.671Z,3.40
2017-12-01T01:31:34.952Z,3.40
2017-12-01T01:34:03.939Z,3.40
2017-12-01T01:36:33.003Z,3.50
2017-12-01T01:39:01.238Z,3.50
2017-12-01T01:41:29.510Z,3.50
2017-12-01T01:43:57.806Z,3.40
2017-12-01T01:46:26.055Z,3.40
2017-12-01T01:48:54.396Z,3.40
2017-12-01T01:51:22.615Z,3.40
2017-12-01T01:53:50.855Z,3.40
2017-12-01T01:56:19.879Z,3.20
2017-12-01T01:58:48.137Z,3.20
2017-12-01T02:01:17.212Z,3.10
2017-12-01T02:03:45.482Z,3.10
2017-12-01T02:06:13.760Z,3.10
2017-12-01T02:08:42.035Z,3.00
2017-12-01T02:11:10.265Z,3.00
2017-12-01T02:13:38.586Z,2.90
2017-12-01T02:16:06.862Z,2.90
2017-12-01T02:18:35.104Z,2.80
2017-12-01T02:21:03.399Z,2.80
2017-12-01T02:23:31.674Z,2.80
2017-12-01T02:25:59.938Z,2.70
2017-12-01T02:28:28.203Z,2.60
2017-12-01T02:30:56.503Z,2.60
2017-12-01T02:33:24.703Z,2.60
2017-12-01T02:35:52.936Z,2.50
2017-12-01T02:38:21.259Z,2.50
2017-12-01T02:40:49.475Z,2.40
2017-12-01T02:43:17.783Z,2.40
2017-12-01T02:45:46.031Z,2.40
2017-12-01T02:48:14.339Z,2.30
2017-12-01T02:50:42.578Z,2.20
2017-12-01T02:53:10.821Z,2.20
2017-12-01T02:55:39.831Z,2.10
2017-12-01T02:58:08.871Z,2.00
2017-12-01T03:00:37.124Z,2.00
2017-12-01T03:03:05.350Z,2.00
2017-12-01T03:05:33.648Z,2.00
2017-12-01T03:08:02.697Z,2.00
2017-12-01T03:10:30.970Z,1.90
2017-12-01T03:12:59.263Z,2.00
2017-12-01T03:15:27.529Z,1.90
2017-12-01T03:17:55.843Z,1.90
2017-12-01T03:20:24.120Z,1.90
2017-12-01T03:22:53.118Z,1.80
2017-12-01T03:25:22.156Z,1.80
2017-12-01T03:27:50.411Z,1.80
2017-12-01T03:30:18.698Z,1.70
2017-12-01T03:32:46.929Z,1.70
2017-12-01T03:35:15.982Z,1.60
2017-12-01T03:37:44.286Z,1.60
2017-12-01T03:40:12.536Z,1.60
2017-12-01T03:42:40.760Z,1.60
2017-12-01T03:45:09.813Z,1.60
2017-12-01T03:47:38.061Z,1.50
2017-12-01T03:50:06.290Z,1.50
2017-12-01T03:52:34.547Z,1.50
2017-12-01T03:55:02.770Z,1.50
2017-12-01T03:57:31.027Z,1.40
2017-12-01T04:00:00.027Z,1.40
2017-12-01T04:02:29.098Z,1.40
2017-12-01T04:04:57.319Z,1.40
2017-12-01T04:07:25.567Z,1.40
2017-12-01T04:09:53.858Z,1.40
2017-12-01T04:12:22.943Z,1.30
2017-12-01T04:14:51.226Z,1.30
2017-12-01T04:17:19.515Z,1.30
2017-12-01T04:19:48.575Z,1.30
2017-12-01T04:22:16.811Z,1.30
2017-12-01T04:24:45.094Z,1.30
2017-12-01T04:27:13.338Z,1.20
2017-12-01T04:29:41.590Z,1.20
2017-12-01T04:32:10.638Z,1.20
2017-12-01T04:34:38.946Z,1.20
2017-12-01T04:37:07.202Z,1.10
2017-12-01T04:39:35.499Z,1.00
2017-12-01T04:42:03.919Z,0.90
2017-12-01T04:44:32.976Z,0.90
2017-12-01T04:47:01.277Z,0.80
2017-12-01T04:49:29.578Z,0.80
2017-12-01T04:51:57.869Z,0.90
2017-12-01T04:54:26.103Z,0.90
2017-12-01T04:56:55.153Z,0.80
2017-12-01T04:59:23.378Z,0.80
2017-12-01T05:01:52.409Z,0.70
2017-12-01T05:04:20.699Z,0.70
2017-12-01T05:06:48.970Z,0.70
2017-12-01T05:09:17.266Z,0.70
2017-12-01T05:11:45.512Z,0.70
2017-12-01T05:14:13.827Z,0.70
2017-12-01T05:16:42.097Z,0.70
2017-12-01T05:19:10.328Z,0.60
2017-12-01T05:21:38.640Z,0.70
2017-12-01T05:24:06.915Z,0.70
2017-12-01T05:26:35.219Z,0.70
2017-12-01T05:29:03.715Z,0.70
2017-12-01T05:31:31.986Z,0.70
2017-12-01T05:34:00.999Z,0.70
2017-12-01T05:36:29.246Z,0.70
2017-12-01T05:38:57.495Z,0.70
2017-12-01T05:41:25.781Z,0.70
2017-12-01T05:43:54.049Z,0.70
2017-12-01T05:46:22.276Z,0.70
2017-12-01T05:48:50.573Z,0.70
2017-12-01T05:51:18.854Z,0.60
2017-12-01T05:53:47.109Z,0.60
2017-12-01T05:56:16.166Z,0.60
2017-12-01T05:58:44.479Z,0.60
2017-12-01T06:01:13.503Z,0.70
2017-12-01T06:03:41.731Z,0.60
2017-12-01T06:06:10.747Z,0.70
2017-12-01T06:08:38.984Z,0.70
2017-12-01T06:11:07.220Z,0.70
2017-12-01T06:13:35.505Z,0.70
2017-12-01T06:16:03.744Z,0.70
2017-12-01T06:18:32.763Z,0.60
2017-12-01T06:21:01.021Z,0.60
2017-12-01T06:23:29.322Z,0.60
2017-12-01T06:25:57.584Z,0.60
2017-12-01T06:28:25.900Z,0.60
2017-12-01T06:30:54.236Z,0.50
2017-12-01T06:33:23.255Z,0.50
2017-12-01T06:35:51.486Z,0.50
2017-12-01T06:38:20.550Z,0.50
2017-12-01T06:40:48.837Z,0.50
2017-12-01T06:43:17.061Z,0.50
2017-12-01T06:45:45.322Z,0.50
2017-12-01T06:48:14.368Z,0.50
2017-12-01T06:50:42.646Z,0.40
2017-12-01T06:53:10.925Z,0.40
2017-12-01T06:55:39.222Z,0.40
2017-12-01T06:58:07.536Z,0.30
2017-12-01T07:00:35.781Z,0.30
2017-12-01T07:03:04.053Z,0.30
2017-12-01T07:05:32.333Z,0.30
2017-12-01T07:08:00.592Z,0.30
2017-12-01T07:10:28.837Z,0.20
2017-12-01T07:12:57.126Z,0.20
2017-12-01T07:15:25.453Z,0.10
2017-12-01T07:17:54.447Z,0.10
2017-12-01T07:20:22.753Z,0.10
2017-12-01T07:22:50.992Z,0.10
2017-12-01T07:25:19.972Z,0.10
2017-12-01T07:27:49.101Z,0.10
2017-12-01T07:30:18.104Z,0.10
2017-12-01T07:32:46.366Z,0.10
2017-12-01T07:35:14.644Z,0.10
2017-12-01T07:37:42.935Z,0.10
2017-12-01T07:40:11.232Z,0.10
2017-12-01T07:42:39.460Z,0.20
2017-12-01T07:45:26.188Z,0.30
2017-12-01T07:47:54.445Z,0.30
2017-12-01T07:50:23.472Z,0.50
2017-12-01T07:52:51.714Z,0.50
2017-12-01T07:55:20.820Z,0.60
2017-12-01T07:57:49.050Z,0.50
2017-12-01T08:00:18.078Z,0.60
2017-12-01T08:02:46.362Z,0.50
2017-12-01T08:05:15.384Z,0.60
2017-12-01T08:07:43.676Z,0.60
2017-12-01T08:10:11.935Z,0.70
2017-12-01T08:12:40.194Z,0.70
2017-12-01T08:15:08.506Z,0.70
2017-12-01T08:17:36.726Z,0.70
2017-12-01T08:20:05.770Z,0.60
2017-12-01T08:22:52.678Z,0.60
2017-12-01T08:25:24.632Z,0.70
2017-12-01T08:27:52.922Z,0.70
2017-12-01T08:30:21.243Z,0.80
2017-12-01T08:32:49.471Z,0.80
2017-12-01T08:35:17.755Z,0.80
2017-12-01T08:37:45.981Z,0.90
2017-12-01T08:40:15.046Z,1.00
2017-12-01T08:42:43.350Z,1.00
2017-12-01T08:45:12.413Z,1.10
2017-12-01T08:47:40.696Z,1.10
2017-12-01T08:50:08.984Z,1.20
2017-12-01T08:52:37.306Z,1.30
2017-12-01T08:55:05.575Z,1.40
2017-12-01T08:57:33.838Z,1.40
2017-12-01T09:00:02.891Z,1.60
2017-12-01T09:02:31.146Z,1.60
2017-12-01T09:04:59.437Z,1.60
2017-12-01T09:07:27.706Z,1.70
2017-12-01T09:09:55.992Z,1.70
2017-12-01T09:12:25.011Z,1.80
2017-12-01T09:14:53.315Z,1.80
2017-12-01T09:17:22.325Z,1.90
2017-12-01T09:19:50.558Z,1.80
2017-12-01T09:22:18.787Z,1.90
2017-12-01T09:24:47.062Z,1.90
2017-12-01T09:27:15.368Z,2.00
2017-12-01T09:29:43.645Z,2.00
2017-12-01T09:32:11.935Z,2.10
2017-12-01T09:34:40.252Z,2.20
2017-12-01T09:37:08.562Z,2.30
2017-12-01T09:39:36.855Z,2.30
2017-12-01T09:42:05.139Z,2.40
2017-12-01T09:44:33.374Z,2.50
2017-12-01T09:47:01.633Z,2.50
2017-12-01T09:49:29.946Z,2.60
2017-12-01T09:51:58.214Z,2.70
2017-12-01T09:54:26.447Z,2.80
2017-12-01T09:56:55.464Z,3.00
2017-12-01T09:59:23.724Z,3.00
2017-12-01T10:01:52.057Z,3.10
2017-12-01T10:04:21.079Z,3.30
2017-12-01T10:06:49.338Z,3.30
2017-12-01T10:09:17.616Z,3.40
2017-12-01T10:11:45.889Z,3.50
2017-12-01T10:14:14.142Z,3.50
2017-12-01T10:16:42.414Z,3.50
2017-12-01T10:19:10.628Z,3.60
2017-12-01T10:21:38.876Z,3.70
2017-12-01T10:24:07.142Z,3.80
2017-12-01T10:26:35.437Z,3.70
2017-12-01T10:29:03.733Z,3.80
2017-12-01T10:31:32.040Z,3.70
2017-12-01T10:34:00.325Z,3.80
2017-12-01T10:36:28.618Z,3.90
2017-12-01T10:38:56.891Z,4.00
2017-12-01T10:41:25.133Z,4.00
2017-12-01T10:43:54.182Z,4.00
2017-12-01T10:46:22.394Z,4.00
2017-12-01T10:48:51.430Z,4.10
2017-12-01T10:51:19.655Z,4.10
2017-12-01T10:53:47.941Z,4.20
2017-12-01T10:56:16.220Z,4.20
2017-12-01T10:58:44.461Z,4.20
2017-12-01T11:01:12.794Z,4.30
2017-12-01T11:03:41.850Z,4.40
2017-12-01T11:06:10.058Z,4.30
2017-12-01T11:08:38.348Z,4.40
2017-12-01T11:11:06.607Z,4.50
2017-12-01T11:13:35.660Z,4.50
2017-12-01T11:16:03.882Z,4.50
2017-12-01T11:18:32.116Z,4.60
2017-12-01T11:21:00.434Z,4.60
2017-12-01T11:23:29.413Z,4.70
2017-12-01T11:25:58.437Z,4.80
2017-12-01T11:28:26.665Z,4.80
2017-12-01T11:30:54.999Z,4.90
2017-12-01T11:33:23.232Z,4.90
2017-12-01T11:35:52.299Z,5.10
2017-12-01T11:38:20.578Z,5.10
2017-12-01T11:40:48.856Z,5.10
2017-12-01T11:43:17.141Z,5.20
2017-12-01T11:45:45.381Z,5.30
2017-12-01T11:48:13.698Z,5.30
2017-12-01T11:50:41.918Z,5.40
2017-12-01T11:53:10.198Z,5.50
2017-12-01T11:55:38.493Z,5.50
2017-12-01T11:58:06.777Z,5.70
2017-12-01T12:00:35.996Z,5.80
2017-12-01T12:03:04.236Z,6.00
2017-12-01T12:05:32.471Z,6.10
2017-12-01T12:08:01.537Z,6.30
2017-12-01T12:10:29.825Z,6.30
2017-12-01T12:12:58.155Z,6.50
2017-12-01T12:15:26.442Z,6.60
2017-12-01T12:17:54.740Z,6.80
2017-12-01T12:20:23.023Z,6.90
2017-12-01T12:22:51.256Z,7.10
2017-12-01T12:25:19.559Z,7.20
2017-12-01T12:27:47.819Z,7.30
2017-12-01T12:30:16.165Z,7.30
2017-12-01T12:32:45.162Z,7.30
2017-12-01T12:35:13.714Z,7.30
2017-12-01T12:37:42.005Z,7.30
2017-12-01T12:40:10.266Z,7.40
2017-12-01T12:42:38.536Z,7.40
2017-12-01T12:45:06.851Z,7.40
2017-12-01T12:47:35.942Z,7.70
2017-12-01T12:50:04.196Z,7.70
2017-12-01T12:52:32.460Z,7.90
2017-12-01T12:55:00.782Z,8.00
2017-12-01T12:57:29.788Z,8.40
2017-12-01T12:59:58.054Z,8.40
2017-12-01T13:02:27.110Z,8.80
2017-12-01T13:04:55.336Z,8.70
2017-12-01T13:07:23.663Z,8.90
2017-12-01T13:09:51.937Z,9.00
2017-12-01T13:12:20.210Z,9.00
2017-12-01T13:14:48.553Z,9.10
2017-12-01T13:17:16.790Z,9.10
2017-12-01T13:19:45.802Z,9.00
2017-12-01T13:22:14.069Z,8.90
2017-12-01T13:24:43.112Z,8.80
2017-12-01T13:27:11.374Z,8.80
2017-12-01T13:29:39.609Z,8.70
2017-12-01T13:32:08.657Z,8.50
2017-12-01T13:34:36.891Z,8.50
2017-12-01T13:37:05.179Z,8.40
2017-12-01T13:39:33.472Z,8.30
2017-12-01T13:42:01.816Z,8.20
2017-12-01T13:44:30.798Z,7.90
2017-12-01T13:46:59.810Z,7.90
2017-12-01T13:49:28.094Z,7.80
2017-12-01T13:51:56.354Z,7.80
2017-12-01T13:54:25.399Z,7.90
2017-12-01T13:56:53.675Z,7.90
2017-12-01T13:59:21.906Z,7.90
2017-12-01T14:01:50.175Z,7.90
2017-12-01T14:04:19.275Z,7.80
2017-12-01T14:06:48.325Z,7.70
2017-12-01T14:09:16.664Z,7.70
2017-12-01T14:11:44.930Z,7.70
2017-12-01T14:14:13.215Z,7.60
2017-12-01T14:16:41.496Z,7.60
2017-12-01T14:19:09.730Z,7.50
2017-12-01T14:21:37.968Z,7.40
2017-12-01T14:24:06.288Z,7.40
2017-12-01T14:26:34.520Z,7.20
2017-12-01T14:29:02.801Z,7.10
2017-12-01T14:31:31.098Z,7.00
2017-12-01T14:33:59.340Z,6.90
2017-12-01T14:36:27.702Z,6.80
2017-12-01T14:38:56.712Z,6.60
2017-12-01T14:41:24.981Z,6.60
2017-12-01T14:43:53.281Z,6.50
2017-12-01T14:46:21.590Z,6.30
2017-12-01T14:48:49.862Z,6.20
2017-12-01T14:51:18.132Z,6.10
2017-12-01T14:53:46.462Z,5.90
2017-12-01T14:56:14.680Z,5.70
2017-12-01T14:58:43.070Z,5.50
2017-12-01T15:01:11.268Z,5.40
2017-12-01T15:03:40.330Z,5.00
2017-12-01T15:06:08.575Z,5.00
2017-12-01T15:08:36.858Z,4.80
2017-12-01T15:11:05.178Z,4.70
2017-12-01T15:13:33.469Z,4.50
2017-12-01T15:16:02.530Z,4.40
2017-12-01T15:18:30.756Z,4.30
2017-12-01T15:20:59.035Z,4.30
2017-12-01T15:23:28.999Z,4.10
2017-12-01T15:25:57.215Z,4.10
2017-12-01T15:28:25.514Z,4.00
2017-12-01T15:30:53.797Z,4.00
2017-12-01T15:33:22.070Z,3.90
2017-12-01T15:35:50.376Z,3.80
2017-12-01T15:38:18.614Z,3.70
2017-12-01T15:40:46.905Z,3.70
2017-12-01T15:43:15.124Z,3.60
2017-12-01T15:45:43.427Z,3.50
2017-12-01T15:48:12.472Z,3.30
2017-12-01T15:50:40.758Z,3.30
2017-12-01T15:53:09.040Z,3.20
2017-12-01T15:55:37.389Z,3.10
2017-12-01T15:58:05.647Z,3.10
2017-12-01T16:00:33.878Z,3.00
2017-12-01T16:03:02.188Z,3.00
2017-12-01T16:05:30.479Z,2.90
2017-12-01T16:07:58.748Z,2.90
2017-12-01T16:10:27.014Z,2.80
2017-12-01T16:12:55.328Z,2.80
2017-12-01T16:15:23.602Z,2.70
2017-12-01T16:17:51.896Z,2.70
2017-12-01T16:20:20.156Z,2.60
2017-12-01T16:22:48.437Z,2.60
2017-12-01T16:25:16.696Z,2.60
2017-12-01T16:27:44.952Z,2.50
2017-12-01T16:30:13.992Z,2.50
2017-12-01T16:32:42.523Z,2.50
2017-12-01T16:35:10.570Z,2.50
2017-12-01T16:37:38.925Z,2.50
2017-12-01T16:40:07.147Z,2.40
2017-12-01T16:42:36.226Z,2.40
2017-12-01T16:45:04.536Z,2.40
2017-12-01T16:47:32.775Z,2.40
2017-12-01T16:50:01.796Z,2.40
2017-12-01T16:52:30.063Z,2.40
2017-12-01T16:54:59.074Z,2.40
2017-12-01T16:57:27.351Z,2.40
2017-12-01T16:59:55.622Z,2.40
2017-12-01T17:02:23.875Z,2.30
2017-12-01T17:04:52.910Z,2.30
2017-12-01T17:07:21.245Z,2.30
2017-12-01T17:09:49.480Z,2.30
2017-12-01T17:12:17.726Z,2.30
2017-12-01T17:14:45.980Z,2.30
2017-12-01T17:17:15.015Z,2.40
2017-12-01T17:19:43.330Z,2.30
2017-12-01T17:22:11.573Z,2.30
2017-12-01T17:24:39.834Z,2.30
2017-12-01T17:27:08.072Z,2.30
2017-12-01T17:29:37.115Z,2.30
2017-12-01T17:32:05.387Z,2.30
2017-12-01T17:34:33.659Z,2.30
2017-12-01T17:37:01.954Z,2.30
2017-12-01T17:39:30.210Z,2.30
2017-12-01T17:41:58.436Z,2.20
2017-12-01T17:44:26.798Z,2.20
2017-12-01T17:46:55.053Z,2.20
2017-12-01T17:49:23.277Z,2.20
2017-12-01T17:51:52.342Z,2.00
2017-12-01T17:54:20.597Z,2.00
2017-12-01T17:56:48.826Z,2.00
2017-12-01T17:59:17.881Z,2.00
2017-12-01T18:01:47.005Z,1.90
2017-12-01T18:04:15.240Z,2.00
2017-12-01T18:06:43.787Z,2.00
2017-12-01T18:09:12.646Z,2.00
2017-12-01T18:11:41.037Z,2.00
2017-12-01T18:14:09.289Z,2.00
2017-12-01T18:16:37.649Z,2.10
2017-12-01T18:19:05.871Z,2.10
2017-12-01T18:21:34.916Z,2.10
2017-12-01T18:24:03.146Z,2.10
2017-12-01T18:26:32.211Z,2.10
2017-12-01T18:29:00.554Z,2.10
2017-12-01T18:31:28.817Z,2.10
2017-12-01T18:33:57.112Z,2.10
2017-12-01T18:36:25.408Z,2.10
2017-12-01T18:38:53.635Z,2.10
2017-12-01T18:41:21.941Z,2.10
2017-12-01T18:43:50.171Z,2.10
2017-12-01T18:46:18.582Z,2.10
2017-12-01T18:48:46.869Z,2.10
2017-12-01T18:51:15.116Z,2.10
2017-12-01T18:53:44.183Z,2.10
2017-12-01T18:56:12.442Z,2.10
2017-12-01T18:58:40.728Z,2.10
2017-12-01T19:01:08.996Z,2.10
2017-12-01T19:03:37.269Z,2.20
2017-12-01T19:06:06.351Z,2.20
2017-12-01T19:08:34.642Z,2.20
2017-12-01T19:11:02.935Z,2.20
2017-12-01T19:13:31.214Z,2.20
2017-12-01T19:15:59.445Z,2.20
2017-12-01T19:18:27.739Z,2.20
2017-12-01T19:20:56.073Z,2.30
2017-12-01T19:23:25.101Z,2.30
2017-12-01T19:25:53.397Z,2.30
2017-12-01T19:28:21.628Z,2.30
2017-12-01T19:30:50.670Z,2.30
2017-12-01T19:33:18.911Z,2.30
2017-12-01T19:35:47.232Z,2.30
2017-12-01T19:38:15.483Z,2.20
2017-12-01T19:40:43.752Z,2.20
2017-12-01T19:43:12.073Z,2.20
2017-12-01T19:45:40.298Z,2.10
2017-12-01T19:48:08.609Z,2.10
2017-12-01T19:50:36.884Z,2.10
2017-12-01T19:53:05.152Z,2.10
2017-12-01T19:55:34.226Z,2.00
2017-12-01T19:58:02.562Z,2.00
2017-12-01T20:00:30.786Z,2.00
2017-12-01T20:02:59.060Z,1.90
2017-12-01T20:05:27.328Z,1.90
2017-12-01T20:07:55.603Z,1.90
2017-12-01T20:10:23.889Z,1.90
2017-12-01T20:12:52.219Z,1.90
2017-12-01T20:15:20.478Z,1.90
2017-12-01T20:17:48.714Z,1.80
2017-12-01T20:20:16.951Z,1.80
2017-12-01T20:22:46.038Z,1.70
2017-12-01T20:25:14.304Z,1.60
2017-12-01T20:27:42.551Z,1.60
2017-12-01T20:30:10.835Z,1.60
2017-12-01T20:32:39.113Z,1.60
2017-12-01T20:35:07.427Z,1.50
2017-12-01T20:37:36.421Z,1.40
2017-12-01T20:40:05.505Z,1.40
2017-12-01T20:42:33.738Z,1.40
2017-12-01T20:45:02.046Z,1.40
2017-12-01T20:47:31.110Z,1.40
2017-12-01T20:49:59.398Z,1.30
2017-12-01T20:52:27.635Z,1.30
2017-12-01T20:54:55.886Z,1.30
2017-12-01T20:57:24.943Z,1.20
2017-12-01T20:59:53.249Z,1.20
2017-12-01T21:02:21.550Z,1.20
2017-12-01T21:04:50.554Z,1.20
2017-12-01T21:07:18.856Z,1.20
2017-12-01T21:09:47.113Z,1.20
2017-12-01T21:12:16.209Z,1.20
2017-12-01T21:14:45.237Z,1.20
2017-12-01T21:17:13.542Z,1.20
2017-12-01T21:19:41.791Z,1.30
2017-12-01T21:22:10.101Z,1.30
2017-12-01T21:24:38.421Z,1.30
2017-12-01T21:27:06.704Z,1.30
2017-12-01T21:29:35.068Z,1.30
2017-12-01T21:32:03.306Z,1.30
2017-12-01T21:34:31.602Z,1.30
2017-12-01T21:36:59.822Z,1.30
2017-12-01T21:39:28.142Z,1.30
2017-12-01T21:41:56.510Z,1.40
2017-12-01T21:44:24.761Z,1.40
2017-12-01T21:46:53.054Z,1.50
2017-12-01T21:49:21.330Z,1.50
2017-12-01T21:51:49.567Z,1.60
2017-12-01T21:54:17.842Z,1.60
2017-12-01T21:56:46.118Z,1.70
2017-12-01T21:59:14.364Z,1.70
2017-12-01T22:01:43.417Z,1.70
2017-12-01T22:04:11.654Z,1.80
2017-12-01T22:06:39.946Z,1.80
2017-12-01T22:09:08.181Z,1.80
2017-12-01T22:11:37.214Z,1.90
2017-12-01T22:14:05.497Z,1.90
2017-12-01T22:16:33.780Z,1.90
2017-12-01T22:19:02.127Z,1.90
2017-12-01T22:21:30.435Z,2.00
2017-12-01T22:23:58.709Z,2.00
2017-12-01T22:26:26.934Z,2.00
2017-12-01T22:28:55.207Z,2.00
2017-12-01T22:31:24.286Z,2.00
2017-12-01T22:33:52.628Z,2.00
2017-12-01T22:36:20.908Z,2.00
2017-12-01T22:38:49.182Z,2.00
2017-12-01T22:41:17.413Z,2.00
2017-12-01T22:43:46.493Z,2.10
2017-12-01T22:46:14.832Z,2.10
2017-12-01T22:48:43.110Z,2.10
2017-12-01T22:51:11.381Z,2.10
2017-12-01T22:53:39.700Z,2.10
2017-12-01T22:56:08.016Z,2.10
2017-12-01T22:58:36.298Z,2.10
2017-12-01T23:03:38.252Z,2.10
2017-12-01T23:06:06.563Z,2.10
2017-12-01T23:08:34.844Z,2.10
2017-12-01T23:11:03.176Z,2.10
2017-12-01T23:13:31.454Z,2.20
2017-12-01T23:15:59.815Z,2.20
2017-12-01T23:18:28.073Z,2.10
2017-12-01T23:20:56.382Z,2.10
2017-12-01T23:23:24.693Z,2.10
2017-12-01T23:25:53.718Z,2.10
2017-12-01T23:28:22.007Z,2.10
2017-12-01T23:30:50.279Z,2.10
2017-12-01T23:33:18.580Z,2.20
2017-12-01T23:35:46.890Z,2.10
2017-12-01T23:38:15.916Z,2.10
2017-12-01T23:40:44.215Z,2.10
2017-12-01T23:43:12.441Z,2.10
2017-12-01T23:45:40.792Z,2.10
2017-12-01T23:48:09.795Z,2.10
2017-12-01T23:50:38.850Z,2.10
2017-12-01T23:53:07.116Z,2.10
2017-12-01T23:55:35.456Z,2.10
2017-12-01T23:58:03.732Z,2.20
